Time;durP1;ratioP1;P1;durP2;ratioP2;P2;SDS_P1;SDS_P2;PMS_P1;PMS_P2;Temp;Humidity;BMP_temperature;BMP_pressure;BME280_temperature;BME280_humidity;BME280_pressure;Samples;Min_cycle;Max_cycle;Signal;HPM_P1;HPM_P2
2024/02/22 00:01:08;;;;;;;3.00;2.23;;;12.60;1.00;;;;;;5098178;28;20191;-41
2024/02/22 00:03:34;;;;;;;2.90;2.33;;;12.60;1.00;;;;;;5096534;28;20164;-41
2024/02/22 00:05:59;;;;;;;3.73;2.43;;;12.60;1.00;;;;;;5098125;28;20414;-42
2024/02/22 00:08:25;;;;;;;3.03;2.10;;;12.50;1.00;;;;;;5097924;28;20204;-40
2024/02/22 00:10:51;;;;;;;3.00;2.00;;;12.40;1.00;;;;;;5080632;28;20203;-40
2024/02/22 00:13:16;;;;;;;3.20;2.53;;;12.40;1.00;;;;;;5097379;28;20246;-39
2024/02/22 00:15:42;;;;;;;3.53;2.33;;;12.40;1.00;;;;;;5097684;28;20407;-42
2024/02/22 00:18:08;;;;;;;2.87;2.17;;;12.40;1.00;;;;;;5096926;28;20263;-42
2024/02/22 00:20:33;;;;;;;2.37;1.83;;;12.30;1.00;;;;;;5097711;28;20310;-41
2024/02/22 00:23:01;;;;;;;5.40;2.00;;;12.20;1.00;;;;;;5098746;28;20184;-45
2024/02/22 00:25:27;;;;;;;2.67;2.17;;;12.20;1.00;;;;;;5080437;28;20177;-43
2024/02/22 00:27:52;;;;;;;2.87;1.80;;;12.30;1.00;;;;;;5080159;28;20489;-40
2024/02/22 00:30:18;;;;;;;2.30;2.00;;;12.20;1.00;;;;;;5098599;28;20172;-41
2024/02/22 00:32:44;;;;;;;4.60;2.43;;;12.10;1.00;;;;;;5080224;28;20199;-42
2024/02/22 00:35:12;;;;;;;2.17;1.97;;;12.10;1.00;;;;;;5098625;28;20255;-40
2024/02/22 00:37:38;;;;;;;3.03;2.27;;;12.10;1.00;;;;;;5098964;28;20246;-41
2024/02/22 00:40:04;;;;;;;2.90;2.23;;;12.00;1.00;;;;;;5098923;28;20434;-42
2024/02/22 00:42:31;;;;;;;3.07;2.30;;;12.00;1.00;;;;;;5098747;28;20245;-42
2024/02/22 00:44:57;;;;;;;2.27;1.73;;;12.00;1.00;;;;;;5097738;28;20418;-41
2024/02/22 00:47:22;;;;;;;2.73;2.07;;;12.00;1.00;;;;;;5099270;28;20512;-43
2024/02/22 00:49:48;;;;;;;2.90;2.27;;;12.00;1.00;;;;;;5099184;28;20275;-42
2024/02/22 00:52:14;;;;;;;6.07;1.70;;;12.00;1.00;;;;;;5098626;28;20555;-42
2024/02/22 00:54:41;;;;;;;2.47;2.10;;;12.00;1.00;;;;;;5098316;28;20407;-41
2024/02/22 00:57:07;;;;;;;2.37;1.87;;;11.90;1.00;;;;;;5099727;28;20168;-40
2024/02/22 00:59:33;;;;;;;1.90;1.50;;;11.90;1.00;;;;;;5097939;28;20441;-41
2024/02/22 01:01:59;;;;;;;3.70;2.17;;;11.80;1.00;;;;;;5098342;28;20459;-40
2024/02/22 01:04:26;;;;;;;3.40;2.33;;;11.80;1.00;;;;;;5079941;28;20419;-41
2024/02/22 01:06:52;;;;;;;2.87;2.53;;;11.70;1.00;;;;;;5097391;28;20563;-41
2024/02/22 01:09:18;;;;;;;2.53;2.00;;;11.70;1.00;;;;;;5098088;28;20467;-40
2024/02/22 01:11:44;;;;;;;2.17;1.70;;;11.60;1.00;;;;;;5097024;28;20525;-40
2024/02/22 01:14:10;;;;;;;1.87;1.63;;;11.80;99.90;;;;;;5098429;28;20828;-43
2024/02/22 01:16:36;;;;;;;2.10;1.50;;;12.20;99.90;;;;;;5097398;28;20559;-42
2024/02/22 01:19:03;;;;;;;8.93;2.40;;;12.50;99.90;;;;;;5097824;28;20430;-43
2024/02/22 01:21:30;;;;;;;2.97;2.13;;;12.90;1.00;;;;;;5097533;28;20243;-40
2024/02/22 01:23:56;;;;;;;4.80;2.43;;;13.10;1.00;;;;;;5098597;28;20431;-42
2024/02/22 01:26:21;;;;;;;2.60;1.80;;;13.40;99.90;;;;;;5098481;28;20509;-43
2024/02/22 01:28:48;;;;;;;1.97;1.73;;;13.50;99.90;;;;;;5098309;28;20477;-44
2024/02/22 01:31:14;;;;;;;3.30;2.33;;;13.70;99.90;;;;;;5098762;28;20172;-43
2024/02/22 01:33:40;;;;;;;3.37;2.37;;;13.40;1.00;;;;;;5098326;28;20487;-41
2024/02/22 01:36:07;;;;;;;5.87;2.63;;;13.10;1.00;;;;;;5098104;28;20475;-40
2024/02/22 01:38:33;;;;;;;2.60;2.07;;;12.80;1.00;;;;;;5098461;28;20176;-45
2024/02/22 01:40:59;;;;;;;2.40;1.90;;;12.40;65.30;;;;;;5098294;28;20426;-43
2024/02/22 01:43:25;;;;;;;4.03;2.20;;;12.10;99.90;;;;;;5080210;28;20441;-40
2024/02/22 01:45:50;;;;;;;3.10;2.20;;;11.80;99.90;;;;;;5097843;28;20177;-41
2024/02/22 01:48:17;;;;;;;4.53;2.10;;;11.60;1.00;;;;;;5097517;28;20521;-41
2024/02/22 01:50:43;;;;;;;2.07;1.87;;;11.50;1.00;;;;;;5096690;28;20176;-45
2024/02/22 01:53:10;;;;;;;4.33;2.10;;;11.60;52.50;;;;;;5078719;28;20419;-44
2024/02/22 01:55:36;;;;;;;2.30;2.00;;;11.50;99.90;;;;;;5095556;28;20427;-47
2024/02/22 01:58:02;;;;;;;2.43;1.80;;;11.20;99.90;;;;;;5096997;28;20434;-47
2024/02/22 02:00:28;;;;;;;2.40;1.80;;;10.90;99.90;;;;;;5095656;28;20181;-45
2024/02/22 02:02:54;;;;;;;2.00;1.67;;;10.50;1.00;;;;;;5094826;28;20554;-44
2024/02/22 02:05:20;;;;;;;2.00;1.77;;;10.30;1.00;;;;;;5096814;28;20430;-49
2024/02/22 02:07:46;;;;;;;2.87;2.20;;;10.10;1.00;;;;;;5095498;28;20472;-45
2024/02/22 02:10:12;;;;;;;2.20;1.90;;;10.00;99.90;;;;;;5077631;28;20907;-47
2024/02/22 02:12:38;;;;;;;2.73;2.10;;;9.90;1.00;;;;;;5076852;28;20452;-45
2024/02/22 02:15:07;;;;;;;2.83;2.23;;;9.70;1.00;;;;;;5094838;28;20240;-47
2024/02/22 02:17:33;;;;;;;2.23;1.70;;;9.60;76.10;;;;;;5094885;28;20271;-49
2024/02/22 02:20:04;;;;;;;2.77;2.10;;;9.60;99.90;;;;;;5092719;28;20728;-48
2024/02/22 02:22:58;;;;;;;3.53;2.20;;;9.50;99.90;;;;;;5093412;28;20434;-47
2024/02/22 02:25:25;;;;;;;3.83;2.13;;;9.50;99.90;;;;;;5094662;28;20418;-48
2024/02/22 02:27:51;;;;;;;2.03;1.50;;;9.50;99.90;;;;;;5077046;28;20601;-49
2024/02/22 02:30:17;;;;;;;4.03;2.30;;;9.50;99.90;;;;;;5095246;28;20398;-46
2024/02/22 02:32:43;;;;;;;1.93;1.70;;;9.40;1.00;;;;;;5095556;28;20479;-46
2024/02/22 02:35:09;;;;;;;2.40;1.20;;;9.40;1.00;;;;;;5096386;28;20824;-46
2024/02/22 02:37:35;;;;;;;2.00;1.60;;;9.30;1.00;;;;;;5095682;28;20437;-46
2024/02/22 02:40:01;;;;;;;3.30;1.70;;;9.30;1.00;;;;;;5095841;28;20190;-46
2024/02/22 02:42:27;;;;;;;2.60;1.70;;;9.30;1.00;;;;;;5095167;28;20588;-47
2024/02/22 02:44:52;;;;;;;4.97;1.57;;;9.20;1.00;;;;;;5096542;28;20188;-45
2024/02/22 02:47:18;;;;;;;1.40;1.17;;;9.20;1.00;;;;;;5095877;28;20470;-49
2024/02/22 02:49:44;;;;;;;2.63;1.83;;;9.20;36.90;;;;;;5096133;28;20275;-45
2024/02/22 02:52:10;;;;;;;2.63;1.33;;;9.20;98.20;;;;;;5095810;28;20847;-46
2024/02/22 02:54:35;;;;;;;2.23;1.70;;;9.10;99.90;;;;;;5095967;28;20623;-46
2024/02/22 02:57:01;;;;;;;3.20;1.30;;;9.10;99.90;;;;;;5096119;28;20183;-46
2024/02/22 02:59:26;;;;;;;2.67;2.13;;;9.00;99.90;;;;;;5096109;28;20439;-46
2024/02/22 03:01:52;;;;;;;2.30;1.57;;;9.10;99.90;;;;;;5095657;28;20245;-46
2024/02/22 03:04:18;;;;;;;1.90;1.50;;;9.00;99.90;;;;;;5096217;28;20184;-47
2024/02/22 03:06:45;;;;;;;3.07;1.70;;;9.00;99.90;;;;;;5096406;28;20187;-48
2024/02/22 03:09:11;;;;;;;1.97;1.67;;;9.00;99.90;;;;;;5099936;28;20458;-47
2024/02/22 03:11:37;;;;;;;1.80;1.40;;;9.00;99.90;;;;;;5099763;28;20689;-47
2024/02/22 03:14:03;;;;;;;1.83;1.50;;;9.00;99.90;;;;;;5099732;28;20180;-46
2024/02/22 03:16:29;;;;;;;2.30;1.50;;;8.90;99.90;;;;;;5099734;28;20414;-46
2024/02/22 03:18:55;;;;;;;1.93;1.57;;;8.90;99.90;;;;;;5100116;28;20475;-45
2024/02/22 03:21:21;;;;;;;1.80;1.30;;;8.80;99.90;;;;;;5081659;28;20855;-47
2024/02/22 03:23:46;;;;;;;3.80;1.70;;;8.80;99.90;;;;;;5099709;28;20188;-45
2024/02/22 03:26:12;;;;;;;2.63;2.00;;;8.80;99.90;;;;;;5098740;28;20528;-46
2024/02/22 03:28:38;;;;;;;3.93;1.90;;;8.80;99.90;;;;;;5098645;28;20200;-46
2024/02/22 03:31:04;;;;;;;3.00;2.20;;;8.70;1.00;;;;;;5097836;28;20279;-47
2024/02/22 03:33:29;;;;;;;2.03;1.83;;;8.70;1.00;;;;;;5098620;28;20578;-46
2024/02/22 03:36:00;;;;;;;5.67;2.40;;;8.70;1.00;;;;;;5098859;28;20425;-50
2024/02/22 03:38:26;;;;;;;2.97;2.07;;;8.70;1.00;;;;;;5098704;28;20462;-47
2024/02/22 03:40:52;;;;;;;2.30;1.70;;;8.60;1.00;;;;;;5081012;28;20449;-45
2024/02/22 03:43:33;;;;;;;2.60;1.90;;;8.60;1.00;;;;;;5081423;28;20415;-49
2024/02/22 03:45:59;;;;;;;2.60;2.40;;;8.60;1.00;;;;;;5098870;28;20843;-47
2024/02/22 03:48:26;;;;;;;2.47;2.20;;;8.60;1.00;;;;;;5098304;28;20597;-48
2024/02/22 03:50:51;;;;;;;2.00;1.53;;;8.50;1.00;;;;;;5098712;28;20621;-47
2024/02/22 03:53:17;;;;;;;6.23;2.40;;;8.50;1.00;;;;;;5098698;28;20517;-46
2024/02/22 03:55:43;;;;;;;2.47;2.27;;;8.40;1.00;;;;;;5098696;28;20255;-45
2024/02/22 03:58:09;;;;;;;1.90;1.50;;;8.40;1.00;;;;;;5098644;28;20449;-48
2024/02/22 04:00:35;;;;;;;2.47;1.70;;;8.40;1.00;;;;;;5098763;28;20555;-45
2024/02/22 04:03:00;;;;;;;2.43;1.70;;;8.40;1.00;;;;;;5098658;28;20431;-49
2024/02/22 04:05:26;;;;;;;2.20;1.93;;;8.50;1.00;;;;;;5097153;28;20267;-46
2024/02/22 04:07:52;;;;;;;5.60;1.90;;;8.50;1.00;;;;;;5096985;28;20216;-48
2024/02/22 04:10:17;;;;;;;2.00;1.47;;;8.40;1.00;;;;;;5097580;28;20183;-45
2024/02/22 04:12:43;;;;;;;2.57;2.00;;;8.40;1.00;;;;;;5097728;28;20173;-47
2024/02/22 04:15:09;;;;;;;2.00;1.73;;;8.40;1.00;;;;;;5097535;28;20188;-45
2024/02/22 04:17:37;;;;;;;2.07;1.70;;;8.40;1.00;;;;;;5097215;28;20192;-47
2024/02/22 04:20:03;;;;;;;3.60;1.80;;;8.40;1.00;;;;;;5097051;28;20573;-47
2024/02/22 04:22:47;;;;;;;2.40;1.80;;;8.40;1.00;;;;;;5098554;28;20744;-47
2024/02/22 04:25:14;;;;;;;2.23;1.77;;;8.40;1.00;;;;;;5098375;28;20411;-51
2024/02/22 04:27:39;;;;;;;2.10;1.63;;;8.40;1.00;;;;;;5098771;28;20568;-45
2024/02/22 04:30:05;;;;;;;2.70;2.10;;;8.30;1.00;;;;;;5098372;28;20556;-46
2024/02/22 04:32:31;;;;;;;5.20;2.07;;;8.30;1.00;;;;;;5080479;28;20489;-49
2024/02/22 04:34:57;;;;;;;2.50;1.70;;;8.40;1.00;;;;;;5098230;28;20434;-46
2024/02/22 04:37:22;;;;;;;2.37;1.73;;;8.40;1.00;;;;;;5098363;28;20613;-47
2024/02/22 04:39:48;;;;;;;3.27;1.60;;;8.50;1.00;;;;;;5098585;28;20511;-49
2024/02/22 04:42:15;;;;;;;3.63;1.43;;;8.40;1.00;;;;;;5098084;28;20291;-49
2024/02/22 04:44:40;;;;;;;3.40;1.60;;;8.50;1.00;;;;;;5098167;28;20186;-45
2024/02/22 04:47:06;;;;;;;2.60;1.67;;;8.40;1.00;;;;;;5080390;28;20430;-47
2024/02/22 04:49:32;;;;;;;1.80;1.27;;;8.50;1.00;;;;;;5097891;28;20179;-48
2024/02/22 04:51:57;;;;;;;2.13;1.77;;;8.50;1.00;;;;;;5079976;28;20532;-47
2024/02/22 04:54:24;;;;;;;4.23;2.23;;;8.50;1.00;;;;;;5096814;28;20211;-49
2024/02/22 04:56:49;;;;;;;1.80;1.47;;;8.50;1.00;;;;;;5095673;28;20546;-50
2024/02/22 04:59:15;;;;;;;2.40;1.63;;;8.50;1.00;;;;;;5096300;28;20422;-46
2024/02/22 05:01:41;;;;;;;1.63;1.27;;;8.50;1.00;;;;;;5096247;28;20177;-46
2024/02/22 05:04:06;;;;;;;2.00;1.80;;;8.50;1.00;;;;;;5096224;28;20738;-46
2024/02/22 05:06:32;;;;;;;2.10;1.40;;;8.50;1.00;;;;;;5095027;28;20177;-47
2024/02/22 05:08:57;;;;;;;2.60;1.47;;;8.50;1.00;;;;;;5095314;28;20485;-45
2024/02/22 05:11:23;;;;;;;2.20;1.70;;;8.40;1.00;;;;;;5095233;28;20172;-46
2024/02/22 05:13:51;;;;;;;1.53;1.40;;;8.40;1.00;;;;;;5095856;28;20169;-47
2024/02/22 05:16:16;;;;;;;2.23;1.40;;;8.40;1.00;;;;;;5093739;28;20313;-46
2024/02/22 05:18:42;;;;;;;2.53;1.70;;;8.40;1.00;;;;;;5094392;28;20859;-48
2024/02/22 05:21:08;;;;;;;1.43;1.13;;;8.30;1.00;;;;;;5095348;28;20227;-46
2024/02/22 05:23:34;;;;;;;2.37;1.90;;;8.40;1.00;;;;;;5095050;28;20188;-48
2024/02/22 05:25:59;;;;;;;1.60;1.50;;;8.30;1.00;;;;;;5094462;28;20448;-48
2024/02/22 05:28:25;;;;;;;1.90;1.30;;;8.30;1.00;;;;;;5094178;28;20200;-48
2024/02/22 05:30:51;;;;;;;2.30;1.73;;;8.30;1.00;;;;;;5092905;28;20401;-45
2024/02/22 05:33:16;;;;;;;1.70;1.37;;;8.30;1.00;;;;;;5094915;28;20216;-50
2024/02/22 05:35:42;;;;;;;3.57;1.73;;;8.30;1.00;;;;;;5095721;28;20530;-46
2024/02/22 05:38:08;;;;;;;2.07;1.60;;;8.30;1.00;;;;;;5093946;28;20188;-47
2024/02/22 05:40:33;;;;;;;2.60;1.93;;;8.30;1.00;;;;;;5094158;28;20257;-45
2024/02/22 05:42:59;;;;;;;2.03;1.77;;;8.30;1.00;;;;;;5095113;28;20190;-47
2024/02/22 05:45:43;;;;;;;2.37;1.70;;;8.30;1.00;;;;;;5077750;28;20447;-47
2024/02/22 05:48:09;;;;;;;1.90;1.50;;;8.30;1.00;;;;;;5095935;28;20267;-57
2024/02/22 05:50:35;;;;;;;1.67;1.57;;;8.30;1.00;;;;;;5095684;28;20550;-47
2024/02/22 05:53:01;;;;;;;2.00;1.80;;;8.30;1.00;;;;;;5095796;28;20539;-47
2024/02/22 05:55:27;;;;;;;2.60;1.90;;;8.30;1.00;;;;;;5093461;28;20425;-48
2024/02/22 05:57:54;;;;;;;2.73;1.80;;;8.30;1.00;;;;;;5094526;28;20261;-48
2024/02/22 06:00:19;;;;;;;2.07;1.67;;;8.40;1.00;;;;;;5077074;28;20422;-45
2024/02/22 06:02:45;;;;;;;3.10;1.87;;;8.40;1.00;;;;;;5096453;28;20426;-46
2024/02/22 06:05:10;;;;;;;2.37;2.00;;;8.30;1.00;;;;;;5095214;28;20185;-48
2024/02/22 06:07:37;;;;;;;1.90;1.50;;;8.40;1.00;;;;;;5093140;28;20499;-48
2024/02/22 06:10:04;;;;;;;2.40;1.90;;;8.30;1.00;;;;;;5094974;28;20176;-46
2024/02/22 06:12:30;;;;;;;2.60;2.10;;;8.30;1.00;;;;;;5092961;28;20497;-45
2024/02/22 06:14:55;;;;;;;2.00;1.57;;;8.30;1.00;;;;;;5091608;28;20516;-47
2024/02/22 06:17:21;;;;;;;3.23;2.00;;;8.30;1.00;;;;;;5091018;28;20172;-50
2024/02/22 06:19:48;;;;;;;2.03;1.50;;;8.30;1.00;;;;;;5090323;28;20203;-46
2024/02/22 06:22:13;;;;;;;2.17;1.60;;;8.30;1.00;;;;;;5092951;28;20215;-45
2024/02/22 06:24:39;;;;;;;2.83;1.73;;;8.30;1.00;;;;;;5091981;28;20446;-47
2024/02/22 06:27:04;;;;;;;2.97;1.90;;;8.40;1.00;;;;;;5092261;28;20210;-46
2024/02/22 06:29:30;;;;;;;3.20;1.77;;;8.40;1.00;;;;;;5092952;28;20176;-44
2024/02/22 06:31:56;;;;;;;2.60;1.93;;;8.40;1.00;;;;;;5092353;28;20447;-46
2024/02/22 06:34:22;;;;;;;2.10;1.70;;;8.40;1.00;;;;;;5090578;28;20165;-45
2024/02/22 06:36:47;;;;;;;2.40;1.63;;;8.40;1.00;;;;;;5092382;28;20180;-48
2024/02/22 06:39:13;;;;;;;3.70;1.80;;;8.40;1.00;;;;;;5093413;28;20184;-45
2024/02/22 06:41:38;;;;;;;2.67;1.70;;;8.40;1.00;;;;;;5093631;28;20408;-46
2024/02/22 06:44:04;;;;;;;2.13;1.60;;;8.40;1.00;;;;;;5098890;28;20184;-45
2024/02/22 06:46:30;;;;;;;1.80;1.47;;;8.30;1.00;;;;;;5097374;28;20172;-45
2024/02/22 06:48:55;;;;;;;3.23;1.70;;;8.40;1.00;;;;;;5098522;28;20216;-45
2024/02/22 06:51:22;;;;;;;1.90;1.63;;;8.40;1.00;;;;;;5097114;28;20271;-46
2024/02/22 06:53:47;;;;;;;2.13;1.60;;;8.40;1.00;;;;;;5097906;28;20169;-45
2024/02/22 06:56:13;;;;;;;2.23;1.70;;;8.40;1.00;;;;;;5099636;28;20433;-45
2024/02/22 06:58:39;;;;;;;3.00;2.30;;;8.40;1.00;;;;;;5098626;28;20168;-45
2024/02/22 07:01:05;;;;;;;2.53;2.07;;;8.40;1.00;;;;;;5096108;28;20728;-48
2024/02/22 07:03:30;;;;;;;3.30;2.60;;;8.40;1.00;;;;;;5098173;28;20184;-44
2024/02/22 07:05:56;;;;;;;4.00;2.73;;;8.40;1.00;;;;;;5095440;28;20189;-47
2024/02/22 07:08:22;;;;;;;4.03;3.53;;;8.50;1.00;;;;;;5098360;28;20227;-45
2024/02/22 07:10:47;;;;;;;3.53;2.70;;;8.40;1.00;;;;;;5062231;28;20309;-48
2024/02/22 07:13:13;;;;;;;4.13;3.17;;;8.40;1.00;;;;;;5098157;28;20230;-44
2024/02/22 07:15:38;;;;;;;3.97;3.07;;;8.40;1.00;;;;;;5096938;28;20420;-47
2024/02/22 07:18:05;;;;;;;6.23;4.00;;;8.40;1.00;;;;;;5096646;28;20570;-45
2024/02/22 07:20:31;;;;;;;5.47;3.70;;;8.40;1.00;;;;;;5098713;28;20270;-46
2024/02/22 07:22:57;;;;;;;5.83;4.47;;;8.40;1.00;;;;;;5098713;28;20430;-49
2024/02/22 07:25:23;;;;;;;5.90;4.57;;;8.50;1.00;;;;;;5097692;28;20716;-46
2024/02/22 07:27:50;;;;;;;6.60;4.73;;;8.50;1.00;;;;;;5099231;28;20364;-46
2024/02/22 07:30:16;;;;;;;7.20;4.30;;;8.50;1.00;;;;;;5098641;28;20418;-46
2024/02/22 07:32:42;;;;;;;6.50;4.60;;;8.50;1.00;;;;;;5099622;28;20452;-48
2024/02/22 07:35:08;;;;;;;6.00;4.20;;;8.60;1.00;;;;;;5099486;28;20429;-44
2024/02/22 07:37:34;;;;;;;6.07;4.27;;;8.60;1.00;;;;;;5080571;28;20172;-44
2024/02/22 07:40:00;;;;;;;5.23;3.50;;;8.60;1.00;;;;;;5098038;28;20480;-45
2024/02/22 07:42:26;;;;;;;4.80;4.20;;;8.70;1.00;;;;;;5096559;28;20195;-46
2024/02/22 07:44:51;;;;;;;5.30;3.53;;;8.70;1.00;;;;;;5095973;28;20843;-45
2024/02/22 07:47:17;;;;;;;4.67;3.90;;;8.70;1.00;;;;;;5096161;28;20267;-46
2024/02/22 07:49:43;;;;;;;6.00;3.97;;;8.70;1.00;;;;;;5095911;28;20172;-45
2024/02/22 07:52:08;;;;;;;4.17;3.47;;;8.70;1.00;;;;;;5097106;28;20471;-46
2024/02/22 07:54:34;;;;;;;4.23;2.87;;;8.70;1.00;;;;;;5095473;28;20574;-47
2024/02/22 07:56:59;;;;;;;3.60;2.50;;;8.70;1.00;;;;;;5094920;28;20370;-48
2024/02/22 07:59:25;;;;;;;2.60;2.00;;;8.70;1.00;;;;;;5096697;28;20757;-47
2024/02/22 08:01:51;;;;;;;3.93;2.30;;;8.70;1.00;;;;;;5094602;28;20195;-45
2024/02/22 08:04:16;;;;;;;2.70;1.90;;;8.70;1.00;;;;;;5094785;28;20267;-45
2024/02/22 08:06:42;;;;;;;2.47;1.83;;;8.70;1.00;;;;;;5092488;28;20221;-45
2024/02/22 08:09:08;;;;;;;2.53;2.23;;;8.70;1.00;;;;;;5094692;28;20478;-45
2024/02/22 08:11:33;;;;;;;2.30;1.70;;;8.60;1.00;;;;;;5093732;28;20437;-46
2024/02/22 08:13:59;;;;;;;2.83;2.10;;;8.70;1.00;;;;;;5094994;28;20175;-46
2024/02/22 08:16:25;;;;;;;1.30;0.90;;;8.70;1.00;;;;;;5095155;28;20179;-47
2024/02/22 08:18:50;;;;;;;1.53;1.10;;;8.70;1.00;;;;;;5094393;28;20594;-45
2024/02/22 08:21:18;;;;;;;1.10;1.00;;;8.80;1.00;;;;;;5107028;28;20231;-47
2024/02/22 08:23:44;;;;;;;3.03;1.30;;;8.80;1.00;;;;;;5117029;28;20274;-45
2024/02/22 08:26:09;;;;;;;1.70;1.00;;;8.90;1.00;;;;;;5099542;28;20549;-46
2024/02/22 08:28:35;;;;;;;1.20;0.97;;;8.90;1.00;;;;;;5117716;28;20372;-45
2024/02/22 08:31:00;;;;;;;1.67;1.03;;;8.90;1.00;;;;;;5118189;28;20171;-45
2024/02/22 08:33:27;;;;;;;1.53;0.93;;;8.90;1.00;;;;;;5101014;28;20180;-45
2024/02/22 08:35:56;;;;;;;1.87;1.17;;;8.90;1.00;;;;;;5119095;28;20183;-45
2024/02/22 08:38:22;;;;;;;1.40;1.00;;;8.90;1.00;;;;;;5116626;28;20707;-48
2024/02/22 08:40:48;;;;;;;1.30;0.83;;;9.00;1.00;;;;;;5099098;28;20417;-46
2024/02/22 08:43:14;;;;;;;0.93;0.77;;;9.00;1.00;;;;;;5116055;28;20413;-48
2024/02/22 08:45:40;;;;;;;1.10;0.83;;;9.00;1.00;;;;;;5117499;28;20302;-46
2024/02/22 08:48:06;;;;;;;1.00;0.77;;;9.10;1.00;;;;;;5117385;28;20855;-47
2024/02/22 08:50:32;;;;;;;2.13;0.90;;;9.10;1.00;;;;;;5116168;28;20353;-45
2024/02/22 08:52:57;;;;;;;1.20;0.70;;;9.20;1.00;;;;;;5114967;28;20512;-46
2024/02/22 08:55:24;;;;;;;1.07;0.70;;;9.20;1.00;;;;;;5116546;28;20172;-45
2024/02/22 08:57:50;;;;;;;1.50;1.20;;;9.30;1.00;;;;;;5117262;28;20184;-46
2024/02/22 09:00:19;;;;;;;2.00;0.60;;;9.30;1.00;;;;;;5116437;28;20907;-46
2024/02/22 09:02:45;;;;;;;1.00;0.70;;;9.30;1.00;;;;;;5093270;28;20180;-47
2024/02/22 09:05:11;;;;;;;1.10;0.67;;;9.20;1.00;;;;;;5097904;28;20517;-46
2024/02/22 09:07:37;;;;;;;1.47;0.50;;;9.20;1.00;;;;;;5098045;28;20481;-44
2024/02/22 09:10:04;;;;;;;1.63;0.70;;;9.30;1.00;;;;;;5097344;28;20490;-45
2024/02/22 09:12:31;;;;;;;1.77;0.77;;;9.40;1.00;;;;;;5096428;28;20717;-47
2024/02/22 09:14:57;;;;;;;1.37;0.70;;;9.40;1.00;;;;;;5096777;28;20495;-46
2024/02/22 09:17:22;;;;;;;1.10;0.60;;;9.60;1.00;;;;;;5095779;28;20180;-46
2024/02/22 09:19:49;;;;;;;0.83;0.50;;;9.70;1.00;;;;;;5095730;28;20731;-46
2024/02/22 09:22:15;;;;;;;1.80;0.60;;;9.80;1.00;;;;;;5095256;28;20195;-48
2024/02/22 09:24:42;;;;;;;1.73;0.53;;;9.90;1.00;;;;;;5096078;28;20422;-47
2024/02/22 09:27:08;;;;;;;1.10;0.60;;;10.00;1.00;;;;;;5095257;28;20196;-46
2024/02/22 09:29:35;;;;;;;0.80;0.50;;;9.90;1.00;;;;;;5094882;28;20513;-46
2024/02/22 09:32:01;;;;;;;1.00;0.40;;;9.90;1.00;;;;;;5095638;28;20541;-47
2024/02/22 09:34:27;;;;;;;0.77;0.43;;;9.90;1.00;;;;;;5097794;28;20497;-47
2024/02/22 09:36:53;;;;;;;0.93;0.50;;;9.90;1.00;;;;;;5096909;28;20207;-45
2024/02/22 09:39:20;;;;;;;1.53;0.73;;;9.90;1.00;;;;;;5093583;28;21010;-45
2024/02/22 09:41:46;;;;;;;1.57;0.70;;;9.90;1.00;;;;;;5094354;28;20735;-45
2024/02/22 09:44:13;;;;;;;1.07;0.50;;;10.00;1.00;;;;;;5094932;28;20434;-48
2024/02/22 09:46:39;;;;;;;0.80;0.40;;;10.00;1.00;;;;;;5095990;28;20876;-46
2024/02/22 09:49:06;;;;;;;1.63;0.77;;;10.10;1.00;;;;;;5093768;28;20519;-45
2024/02/22 09:51:32;;;;;;;1.00;0.63;;;10.30;1.00;;;;;;5095301;28;20444;-48
2024/02/22 09:53:59;;;;;;;1.57;0.77;;;10.30;1.00;;;;;;5095710;28;20430;-45
2024/02/22 09:56:25;;;;;;;1.10;0.60;;;10.30;1.00;;;;;;5076129;28;20184;-46
2024/02/22 09:58:51;;;;;;;0.97;0.50;;;10.20;1.00;;;;;;5093878;28;20426;-45
2024/02/22 10:01:17;;;;;;;0.83;0.40;;;10.20;1.00;;;;;;5093802;28;20402;-46
2024/02/22 10:03:42;;;;;;;0.90;0.60;;;10.30;1.00;;;;;;5094343;28;20241;-48
2024/02/22 10:06:18;;;;;;;1.57;0.77;;;10.40;1.00;;;;;;5093145;28;20438;-45
2024/02/22 10:08:44;;;;;;;1.87;0.40;;;10.40;1.00;;;;;;5092553;28;20237;-46
2024/02/22 10:11:10;;;;;;;2.00;0.77;;;10.30;99.90;;;;;;5093989;28;20447;-46
2024/02/22 10:13:36;;;;;;;2.07;0.70;;;10.40;1.00;;;;;;5092758;28;20438;-46
2024/02/22 10:16:11;;;;;;;1.10;0.60;;;10.40;1.00;;;;;;5091365;28;20173;-48
2024/02/22 10:18:37;;;;;;;0.93;0.60;;;10.30;1.00;;;;;;5073592;28;20456;-45
2024/02/22 10:21:17;;;;;;;1.03;0.73;;;10.30;1.00;;;;;;5092850;28;20564;-47
2024/02/22 10:23:46;;;;;;;0.90;0.50;;;10.10;1.00;;;;;;5092203;28;20433;-48
2024/02/22 10:26:12;;;;;;;0.90;0.50;;;10.10;1.00;;;;;;5092855;28;20430;-46
2024/02/22 10:28:41;;;;;;;1.20;0.53;;;10.00;1.00;;;;;;5091296;28;20466;-46
2024/02/22 10:31:07;;;;;;;3.03;0.60;;;9.90;1.00;;;;;;5091929;28;20402;-46
2024/02/22 10:33:33;;;;;;;0.93;0.63;;;9.80;1.00;;;;;;5092672;28;20422;-46
2024/02/22 10:36:00;;;;;;;0.80;0.40;;;9.90;1.00;;;;;;5095291;28;20517;-45
2024/02/22 10:38:30;;;;;;;0.93;0.60;;;10.00;1.00;;;;;;5092206;28;20430;-46
2024/02/22 10:40:56;;;;;;;1.17;0.53;;;10.00;1.00;;;;;;5094115;28;20423;-46
2024/02/22 10:43:25;;;;;;;0.90;0.50;;;10.10;1.00;;;;;;5093793;28;20493;-48
2024/02/22 10:45:53;;;;;;;0.80;0.50;;;10.00;1.00;;;;;;5093056;28;20426;-46
2024/02/22 10:48:20;;;;;;;0.80;0.43;;;10.00;1.00;;;;;;5091211;28;20466;-44
2024/02/22 10:50:47;;;;;;;1.13;0.60;;;9.90;1.00;;;;;;5091943;28;20901;-45
2024/02/22 10:53:15;;;;;;;0.80;0.53;;;9.90;1.00;;;;;;5093429;28;20449;-45
2024/02/22 10:55:48;;;;;;;1.00;0.60;;;10.00;1.00;;;;;;5094343;28;20476;-47
2024/02/22 10:58:15;;;;;;;1.00;0.60;;;10.00;1.00;;;;;;5093747;28;20505;-47
2024/02/22 11:00:41;;;;;;;1.30;0.67;;;10.00;1.00;;;;;;5091723;28;20476;-47
2024/02/22 11:03:06;;;;;;;1.00;0.57;;;10.00;1.00;;;;;;5092051;28;20461;-48
2024/02/22 11:05:36;;;;;;;2.07;0.83;;;9.90;1.00;;;;;;5091626;28;20698;-44
2024/02/22 11:08:03;;;;;;;0.80;0.50;;;9.90;1.00;;;;;;5094048;28;20208;-48
2024/02/22 11:10:29;;;;;;;1.33;0.50;;;9.90;1.00;;;;;;5092399;28;20421;-45
2024/02/22 11:13:02;;;;;;;1.10;0.70;;;9.90;1.00;;;;;;5076069;28;20438;-47
2024/02/22 11:15:37;;;;;;;2.10;0.80;;;9.90;1.00;;;;;;5092521;28;20595;-43
2024/02/22 11:18:03;;;;;;;0.97;0.47;;;9.80;1.00;;;;;;5090892;28;20510;-45
2024/02/22 11:20:35;;;;;;;1.00;0.53;;;9.80;1.00;;;;;;5091379;28;20756;-47
2024/02/22 11:23:14;;;;;;;1.10;0.50;;;9.70;1.00;;;;;;5074912;28;20507;-47
2024/02/22 11:25:40;;;;;;;1.00;0.57;;;9.70;1.00;;;;;;5101289;28;20432;-48
2024/02/22 11:28:06;;;;;;;3.10;0.67;;;9.60;1.00;;;;;;5113064;28;20469;-45
2024/02/22 11:30:31;;;;;;;0.87;0.40;;;9.70;1.00;;;;;;5098805;28;20846;-47
2024/02/22 11:32:57;;;;;;;0.80;0.60;;;9.70;1.00;;;;;;5115617;28;20205;-46
2024/02/22 11:35:23;;;;;;;0.90;0.60;;;9.60;1.00;;;;;;5109822;28;20753;-47
2024/02/22 11:37:59;;;;;;;1.43;0.57;;;9.70;1.00;;;;;;5115794;28;20715;-49
2024/02/22 11:40:30;;;;;;;1.00;0.50;;;9.70;1.00;;;;;;5116848;28;20459;-47
2024/02/22 11:42:56;;;;;;;1.87;0.50;;;9.60;1.00;;;;;;5115219;28;20896;-45
2024/02/22 11:45:22;;;;;;;1.00;0.70;;;9.70;1.00;;;;;;5114117;28;20425;-45
2024/02/22 11:47:48;;;;;;;0.83;0.33;;;9.80;1.00;;;;;;5113348;28;20475;-46
2024/02/22 11:50:15;;;;;;;1.00;0.50;;;9.80;1.00;;;;;;5097653;28;20512;-45
2024/02/22 11:52:41;;;;;;;0.97;0.50;;;10.00;1.00;;;;;;5116365;28;20278;-45
2024/02/22 11:55:13;;;;;;;1.10;0.60;;;10.30;1.00;;;;;;5114717;28;20389;-47
2024/02/22 11:57:39;;;;;;;1.20;0.70;;;10.60;1.00;;;;;;5101070;28;20426;-45
2024/02/22 12:00:06;;;;;;;0.80;0.50;;;10.90;1.00;;;;;;5078898;28;20422;-47
2024/02/22 12:02:33;;;;;;;0.80;0.40;;;11.30;1.00;;;;;;5078284;28;20430;-50
2024/02/22 12:04:59;;;;;;;2.93;0.60;;;11.50;99.90;;;;;;5094139;28;20430;-48
2024/02/22 12:07:25;;;;;;;1.90;0.67;;;11.70;99.90;;;;;;5094148;28;20410;-46
2024/02/22 12:09:51;;;;;;;1.57;0.60;;;11.60;99.90;;;;;;5076014;28;20925;-47
2024/02/22 12:12:17;;;;;;;1.20;0.60;;;11.50;99.90;;;;;;5093656;28;20430;-48
2024/02/22 12:14:42;;;;;;;1.00;0.50;;;11.20;99.90;;;;;;5093299;28;20279;-49
2024/02/22 12:17:10;;;;;;;0.83;0.57;;;11.10;99.90;;;;;;5093627;28;20449;-46
2024/02/22 12:19:36;;;;;;;1.00;0.70;;;11.00;99.90;;;;;;5096018;28;20436;-48
2024/02/22 12:22:02;;;;;;;1.37;0.60;;;10.90;1.00;;;;;;5095207;28;20437;-46
2024/02/22 12:24:31;;;;;;;1.33;0.60;;;10.70;99.90;;;;;;5094046;28;20529;-46
2024/02/22 12:26:57;;;;;;;1.53;0.80;;;10.60;1.00;;;;;;5093803;28;20207;-46
2024/02/22 12:29:25;;;;;;;1.20;0.87;;;10.50;1.00;;;;;;5094839;28;20482;-44
2024/02/22 12:32:01;;;;;;;1.70;0.63;;;10.40;1.00;;;;;;5094320;28;20256;-47
2024/02/22 12:34:27;;;;;;;0.93;0.60;;;10.30;1.00;;;;;;5076167;28;20526;-47
2024/02/22 12:36:52;;;;;;;0.80;0.50;;;10.30;1.00;;;;;;5095431;28;20435;-47
2024/02/22 12:39:19;;;;;;;0.87;0.63;;;10.30;1.00;;;;;;5103822;28;20489;-46
2024/02/22 12:41:45;;;;;;;1.00;0.50;;;10.30;1.00;;;;;;5112480;28;20244;-47
2024/02/22 12:44:10;;;;;;;1.20;0.70;;;10.30;1.00;;;;;;5096240;28;20433;-44
2024/02/22 12:46:38;;;;;;;0.90;0.70;;;10.50;1.00;;;;;;5094516;28;20180;-46
2024/02/22 12:49:04;;;;;;;1.40;0.60;;;10.60;1.00;;;;;;5115325;28;20566;-46
2024/02/22 12:51:29;;;;;;;0.90;0.60;;;10.60;1.00;;;;;;5079929;28;20548;-50
2024/02/22 12:53:55;;;;;;;1.17;0.50;;;10.50;1.00;;;;;;5115552;28;20229;-44
2024/02/22 12:56:21;;;;;;;1.37;0.50;;;10.30;1.00;;;;;;5116353;28;20180;-45
2024/02/22 12:58:47;;;;;;;4.00;0.73;;;10.30;1.00;;;;;;5115501;28;20176;-45